Time;durP1;ratioP1;P1;durP2;ratioP2;P2;SDS_P1;SDS_P2;PMS_P1;PMS_P2;Temp;Humidity;BMP_temperature;BMP_pressure;BME280_temperature;BME280_humidity;BME280_pressure;Samples;Min_cycle;Max_cycle;Signal;HPM_P1;HPM_P2
2021/11/28 00:00:42;;;;;;;6.32;3.72;;;5.90;71.20;;;;;;2551636;53;20974;-72
2021/11/28 00:03:09;;;;;;;6.62;3.80;;;5.90;71.20;;;;;;2319685;54;20987;-71
2021/11/28 00:05:35;;;;;;;5.15;3.00;;;5.90;71.20;;;;;;2564619;53;21019;-72
2021/11/28 00:08:22;;;;;;;6.12;2.58;;;5.80;71.20;;;;;;2560679;53;20941;-72
2021/11/28 00:16:13;;;;;;;4.18;2.10;;;5.80;71.30;;;;;;2583416;53;20903;-73
2021/11/28 00:18:41;;;;;;;5.10;2.70;;;5.90;71.30;;;;;;2553052;53;21418;-71
2021/11/28 00:21:09;;;;;;;5.68;3.17;;;5.90;71.40;;;;;;2316125;54;21080;-73
2021/11/28 00:23:35;;;;;;;6.37;3.00;;;5.80;71.30;;;;;;2560635;53;20989;-73
2021/11/28 00:26:02;;;;;;;7.43;4.00;;;5.80;71.20;;;;;;2573294;53;21064;-71
2021/11/28 00:28:31;;;;;;;6.97;3.30;;;5.80;71.20;;;;;;2555293;53;20938;-72
2021/11/28 00:30:57;;;;;;;7.07;3.35;;;5.80;71.20;;;;;;2556040;53;20976;-73
2021/11/28 00:33:25;;;;;;;6.30;3.42;;;5.80;71.10;;;;;;2302704;55;21010;-73
2021/11/28 00:35:51;;;;;;;8.30;4.43;;;5.80;71.20;;;;;;2581526;53;20996;-72
2021/11/28 00:38:19;;;;;;;16.60;6.20;;;5.80;71.30;;;;;;2563081;53;21649;-70
2021/11/28 00:40:45;;;;;;;13.60;7.25;;;5.80;71.40;;;;;;2554868;53;20969;-74
2021/11/28 00:43:11;;;;;;;14.38;6.30;;;5.80;71.40;;;;;;2554513;53;21011;-71
2021/11/28 00:45:37;;;;;;;15.77;7.15;;;5.70;71.40;;;;;;2337889;54;20972;-72
2021/11/28 00:48:04;;;;;;;10.82;4.85;;;5.80;71.50;;;;;;2556358;53;20987;-73
2021/11/28 00:50:46;;;;;;;9.07;4.12;;;5.80;71.60;;;;;;2569185;53;20979;-73
2021/11/28 00:53:14;;;;;;;9.20;4.00;;;5.80;71.70;;;;;;2554271;53;21065;-71
2021/11/28 00:55:45;;;;;;;7.45;3.87;;;5.80;71.60;;;;;;2336579;55;20947;-73
2021/11/28 00:58:12;;;;;;;7.90;4.28;;;5.80;71.80;;;;;;2580039;53;20994;-71
2021/11/28 01:00:38;;;;;;;6.90;3.25;;;5.80;71.70;;;;;;2549429;54;21425;-70
2021/11/28 01:03:06;;;;;;;5.55;3.00;;;5.80;71.80;;;;;;2313286;54;21099;-73
2021/11/28 01:05:32;;;;;;;5.72;3.28;;;5.80;71.80;;;;;;2331383;54;21061;-70
2021/11/28 01:07:58;;;;;;;5.55;2.83;;;5.80;72.50;;;;;;2325562;54;20915;-70
2021/11/28 01:10:24;;;;;;;5.22;2.80;;;5.80;71.80;;;;;;2300878;55;20975;-73
2021/11/28 01:12:52;;;;;;;5.32;2.50;;;5.80;71.80;;;;;;2315055;55;21114;-71
2021/11/28 01:15:18;;;;;;;5.20;2.33;;;5.80;71.80;;;;;;2338100;54;20984;-71
2021/11/28 01:17:44;;;;;;;6.05;2.20;;;5.80;71.80;;;;;;2559601;53;21121;-70
2021/11/28 01:20:11;;;;;;;4.80;2.45;;;5.80;71.90;;;;;;2577991;53;20919;-71
2021/11/28 01:22:38;;;;;;;6.82;2.50;;;5.80;71.80;;;;;;2582862;53;20919;-70
2021/11/28 01:25:07;;;;;;;5.60;2.45;;;5.90;71.90;;;;;;2582971;53;20884;-73
2021/11/28 01:27:34;;;;;;;5.25;2.37;;;5.90;71.90;;;;;;2542743;54;20981;-72
2021/11/28 01:30:00;;;;;;;5.05;2.67;;;5.90;71.90;;;;;;2326021;54;20908;-73
2021/11/28 01:32:26;;;;;;;4.87;2.95;;;5.90;71.90;;;;;;2338160;55;20927;-72
2021/11/28 01:34:52;;;;;;;5.80;2.70;;;5.90;71.90;;;;;;2337740;55;21345;-69
2021/11/28 01:37:19;;;;;;;4.70;2.58;;;5.90;71.90;;;;;;2338660;55;20923;-73
2021/11/28 01:39:47;;;;;;;7.15;3.20;;;5.90;72.00;;;;;;2581990;53;20969;-72
2021/11/28 01:42:13;;;;;;;4.57;2.50;;;5.90;72.00;;;;;;2560945;53;20957;-70
2021/11/28 01:44:40;;;;;;;6.15;3.05;;;5.90;72.00;;;;;;2314582;54;21013;-70
2021/11/28 01:47:06;;;;;;;7.37;2.42;;;5.90;72.00;;;;;;2319194;54;21715;-71
2021/11/28 01:49:32;;;;;;;6.85;3.00;;;5.90;71.90;;;;;;2329124;54;20980;-70
2021/11/28 01:51:59;;;;;;;5.40;2.90;;;5.90;71.90;;;;;;2337876;54;20975;-70
2021/11/28 01:54:26;;;;;;;7.45;2.92;;;5.90;71.80;;;;;;2325799;54;20949;-70
2021/11/28 01:56:53;;;;;;;5.10;2.97;;;5.90;71.80;;;;;;2328493;54;20912;-71
2021/11/28 01:59:19;;;;;;;5.35;2.92;;;5.90;71.80;;;;;;2581987;53;20915;-72
2021/11/28 02:01:46;;;;;;;6.00;3.17;;;5.90;71.80;;;;;;2582127;53;21800;-71
2021/11/28 02:04:16;;;;;;;7.85;3.65;;;5.90;71.80;;;;;;2582534;53;20967;-71
2021/11/28 02:06:44;;;;;;;7.30;4.03;;;5.90;71.70;;;;;;2582975;53;20942;-70
2021/11/28 02:09:10;;;;;;;6.25;3.92;;;5.90;71.50;;;;;;2562201;53;20957;-73
2021/11/28 02:11:39;;;;;;;6.20;3.95;;;5.90;71.40;;;;;;2331406;54;20884;-71
2021/11/28 02:14:07;;;;;;;7.62;3.75;;;5.90;71.40;;;;;;2338458;54;21014;-72
2021/11/28 02:16:33;;;;;;;5.70;3.33;;;5.90;71.30;;;;;;2338368;54;20939;-71
2021/11/28 02:19:00;;;;;;;6.78;3.92;;;5.90;71.30;;;;;;2558915;53;22000;-70
2021/11/28 02:21:26;;;;;;;6.82;3.92;;;5.90;71.50;;;;;;2562437;53;20951;-71
2021/11/28 02:23:54;;;;;;;6.22;3.47;;;5.90;71.50;;;;;;2314669;54;21118;-71
2021/11/28 02:26:22;;;;;;;6.20;3.22;;;5.90;71.50;;;;;;2321073;54;21107;-70
2021/11/28 02:28:49;;;;;;;7.43;3.50;;;5.90;71.50;;;;;;2550313;53;21004;-71
2021/11/28 02:31:16;;;;;;;6.37;3.20;;;5.90;71.50;;;;;;2338301;54;20927;-70
2021/11/28 02:33:45;;;;;;;5.55;3.20;;;5.90;71.50;;;;;;2555706;53;20912;-71
2021/11/28 02:36:12;;;;;;;6.35;3.15;;;5.90;71.50;;;;;;2337768;54;20927;-70
2021/11/28 02:38:40;;;;;;;6.18;3.20;;;5.80;71.50;;;;;;2564469;53;21427;-70
2021/11/28 02:41:06;;;;;;;6.70;2.90;;;5.90;71.60;;;;;;2330565;54;21012;-72
2021/11/28 02:43:33;;;;;;;5.30;2.65;;;5.80;71.50;;;;;;2327411;54;20957;-71
2021/11/28 02:46:03;;;;;;;3.75;2.10;;;5.80;71.50;;;;;;2314932;54;21808;-73
2021/11/28 02:48:30;;;;;;;4.90;2.50;;;5.90;71.70;;;;;;2335588;54;20975;-72
2021/11/28 02:50:58;;;;;;;3.62;1.87;;;5.90;71.80;;;;;;2582368;53;20932;-70
2021/11/28 02:53:24;;;;;;;4.80;1.77;;;5.90;71.80;;;;;;2316364;54;20895;-70
2021/11/28 02:55:55;;;;;;;4.35;1.90;;;5.80;71.70;;;;;;2334517;54;20992;-73
2021/11/28 02:58:23;;;;;;;4.15;1.92;;;5.90;71.90;;;;;;2562392;53;20979;-73
2021/11/28 03:00:55;;;;;;;4.03;1.75;;;5.90;71.90;;;;;;2554218;53;21016;-72
2021/11/28 03:03:22;;;;;;;3.85;1.73;;;5.90;71.90;;;;;;2561466;53;20912;-73
2021/11/28 03:05:48;;;;;;;3.47;2.05;;;5.90;71.90;;;;;;2563647;53;20942;-73
2021/11/28 03:08:15;;;;;;;3.53;1.62;;;5.80;71.90;;;;;;2324507;54;20978;-72
2021/11/28 03:10:54;;;;;;;3.60;1.60;;;5.90;72.00;;;;;;2587471;53;21067;-72
2021/11/28 03:13:28;;;;;;;3.10;1.27;;;5.90;72.60;;;;;;2323230;55;20968;-72
2021/11/28 03:15:57;;;;;;;3.30;1.30;;;6.00;72.70;;;;;;2342906;54;21248;-70
2021/11/28 03:18:25;;;;;;;3.05;1.30;;;6.00;72.70;;;;;;2589563;53;21008;-72
2021/11/28 03:20:56;;;;;;;3.53;1.50;;;6.00;72.00;;;;;;2342361;54;20980;-70
2021/11/28 03:23:23;;;;;;;4.00;1.30;;;6.00;72.00;;;;;;2323251;55;21492;-70
2021/11/28 03:25:50;;;;;;;4.10;1.58;;;6.00;71.90;;;;;;2569029;53;21037;-72
2021/11/28 03:28:17;;;;;;;3.28;1.12;;;6.00;71.90;;;;;;2561582;53;20910;-73
2021/11/28 03:30:44;;;;;;;2.72;1.20;;;6.00;71.90;;;;;;2331637;54;21114;-73
2021/11/28 03:33:11;;;;;;;5.40;1.20;;;6.00;71.90;;;;;;2561249;53;21777;-70
2021/11/28 03:35:37;;;;;;;3.95;1.37;;;6.00;71.80;;;;;;2325431;54;21013;-73
2021/11/28 03:38:03;;;;;;;4.47;1.35;;;6.10;71.90;;;;;;2342073;54;20940;-73
2021/11/28 03:40:33;;;;;;;3.42;1.50;;;6.10;71.80;;;;;;2329207;54;20949;-73
2021/11/28 03:42:59;;;;;;;6.90;2.58;;;6.10;71.90;;;;;;2329063;54;21026;-72
2021/11/28 03:45:26;;;;;;;3.22;1.48;;;6.10;71.90;;;;;;2336805;54;20977;-72
2021/11/28 03:47:52;;;;;;;3.78;1.37;;;6.10;71.90;;;;;;2588773;53;21436;-71
2021/11/28 03:50:18;;;;;;;4.90;1.35;;;6.10;71.80;;;;;;2344377;54;20955;-71
2021/11/28 03:52:44;;;;;;;2.37;1.20;;;6.10;71.80;;;;;;2589278;53;21009;-71
2021/11/28 03:55:12;;;;;;;2.72;1.37;;;6.10;71.80;;;;;;2342694;54;20925;-73
2021/11/28 03:57:38;;;;;;;2.80;1.10;;;6.10;71.80;;;;;;2343765;54;20973;-71
2021/11/28 04:00:07;;;;;;;3.60;1.30;;;6.10;71.80;;;;;;2326305;54;20938;-70
2021/11/28 04:02:33;;;;;;;2.87;1.15;;;6.10;71.80;;;;;;2587544;53;21080;-72
2021/11/28 04:05:00;;;;;;;3.30;1.30;;;6.10;71.80;;;;;;2316145;54;20955;-70
2021/11/28 04:07:26;;;;;;;3.62;1.25;;;6.10;71.80;;;;;;2315736;54;20985;-70
2021/11/28 04:09:52;;;;;;;4.03;1.50;;;6.20;71.80;;;;;;2316203;54;20980;-73
2021/11/28 04:12:19;;;;;;;3.70;1.60;;;6.10;71.70;;;;;;2318696;54;21394;-71
2021/11/28 04:14:48;;;;;;;2.83;1.30;;;6.10;71.60;;;;;;2316578;54;21003;-73
2021/11/28 04:17:14;;;;;;;4.72;2.05;;;6.20;71.70;;;;;;2569193;53;21004;-71
2021/11/28 04:19:40;;;;;;;3.58;1.33;;;6.10;71.60;;;;;;2541874;53;21063;-72
2021/11/28 04:22:07;;;;;;;3.35;1.45;;;6.10;71.60;;;;;;2547085;53;20988;-72
2021/11/28 04:24:37;;;;;;;5.95;1.17;;;6.20;71.70;;;;;;2318629;54;21001;-72
2021/11/28 04:27:03;;;;;;;2.92;1.40;;;6.10;71.60;;;;;;2313198;54;21445;-70
2021/11/28 04:29:29;;;;;;;2.78;1.30;;;6.10;71.60;;;;;;2312494;55;22118;-71
2021/11/28 04:31:56;;;;;;;2.95;1.20;;;6.20;71.70;;;;;;2301527;54;21104;-73
2021/11/28 04:34:22;;;;;;;3.28;1.20;;;6.20;71.70;;;;;;2541249;54;21011;-71
2021/11/28 04:36:49;;;;;;;2.50;1.23;;;6.20;71.70;;;;;;2305718;54;21021;-71
2021/11/28 04:39:19;;;;;;;2.85;1.30;;;6.20;72.10;;;;;;2549086;53;20948;-74
2021/11/28 04:41:45;;;;;;;3.53;1.48;;;6.20;71.90;;;;;;2342651;54;20961;-72
2021/11/28 04:44:14;;;;;;;4.00;1.20;;;6.20;71.80;;;;;;2588858;53;21282;-71
2021/11/28 04:46:40;;;;;;;2.97;1.30;;;6.20;71.80;;;;;;2342513;54;20965;-70
2021/11/28 04:49:07;;;;;;;3.15;1.40;;;6.20;71.90;;;;;;2342771;54;20940;-71
2021/11/28 04:51:33;;;;;;;3.33;1.23;;;6.20;71.90;;;;;;2342506;54;21017;-71
2021/11/28 04:53:59;;;;;;;3.83;1.50;;;6.20;71.90;;;;;;2556808;53;21030;-73
2021/11/28 04:56:26;;;;;;;5.53;1.73;;;6.20;71.90;;;;;;2340506;54;20944;-69
2021/11/28 04:58:52;;;;;;;4.10;1.58;;;6.20;71.90;;;;;;2341573;54;21493;-73
2021/11/28 05:01:19;;;;;;;3.00;1.60;;;6.20;71.90;;;;;;2339788;54;21048;-70
2021/11/28 05:03:45;;;;;;;3.67;1.40;;;6.20;71.90;;;;;;2562828;53;20988;-73
2021/11/28 05:06:11;;;;;;;3.83;1.52;;;6.20;71.90;;;;;;2315997;54;20988;-70
2021/11/28 05:08:38;;;;;;;5.20;1.70;;;6.20;71.80;;;;;;2588969;53;20989;-72
2021/11/28 05:11:04;;;;;;;3.65;1.30;;;6.20;71.70;;;;;;2342753;54;21501;-70
2021/11/28 05:13:30;;;;;;;4.53;1.48;;;6.20;71.80;;;;;;2555441;53;20962;-70
2021/11/28 05:15:57;;;;;;;2.97;1.35;;;6.20;71.80;;;;;;2322035;54;20959;-70
2021/11/28 05:18:27;;;;;;;3.67;1.52;;;6.20;71.80;;;;;;2328971;54;21019;-73
2021/11/28 05:20:53;;;;;;;2.65;1.10;;;6.20;71.80;;;;;;2302028;54;21545;-71
2021/11/28 05:23:19;;;;;;;3.40;1.58;;;6.20;71.90;;;;;;2326083;54;20997;-71
2021/11/28 05:25:47;;;;;;;3.55;1.40;;;6.30;72.00;;;;;;2317295;54;20991;-72
2021/11/28 05:28:14;;;;;;;3.75;1.75;;;6.30;72.00;;;;;;2315961;54;20956;-69
2021/11/28 05:30:40;;;;;;;6.57;2.30;;;6.30;71.90;;;;;;2334675;54;20937;-73
2021/11/28 05:33:07;;;;;;;4.40;2.00;;;6.30;71.90;;;;;;2319256;54;21534;-72
2021/11/28 05:35:33;;;;;;;3.78;1.58;;;6.30;71.90;;;;;;2342022;54;20948;-71
2021/11/28 05:37:59;;;;;;;2.85;1.30;;;6.30;71.90;;;;;;2331165;54;20999;-70
2021/11/28 05:40:27;;;;;;;3.37;1.50;;;6.30;71.90;;;;;;2327519;54;21014;-71
2021/11/28 05:42:53;;;;;;;2.97;1.27;;;6.30;72.20;;;;;;2311807;54;20971;-70
2021/11/28 05:45:21;;;;;;;4.32;1.30;;;6.30;71.90;;;;;;2572638;53;20944;-72
2021/11/28 05:47:48;;;;;;;5.60;1.35;;;6.30;71.90;;;;;;2573247;53;20942;-72
2021/11/28 05:50:16;;;;;;;3.37;1.20;;;6.30;71.90;;;;;;2329734;54;20989;-69
2021/11/28 05:52:43;;;;;;;3.95;1.48;;;6.30;71.90;;;;;;2320134;54;21006;-71
2021/11/28 05:55:09;;;;;;;2.65;1.12;;;6.30;71.90;;;;;;2320651;54;20929;-70
2021/11/28 05:57:36;;;;;;;3.37;1.45;;;6.30;71.90;;;;;;2313530;54;20990;-72
2021/11/28 06:00:04;;;;;;;2.85;1.42;;;6.30;71.90;;;;;;2536665;53;20946;-69
2021/11/28 06:02:31;;;;;;;4.40;1.40;;;6.30;71.80;;;;;;2565324;53;21022;-72
2021/11/28 06:04:57;;;;;;;3.37;1.52;;;6.30;71.80;;;;;;2326108;54;21012;-72
2021/11/28 06:07:27;;;;;;;3.15;1.50;;;6.30;71.70;;;;;;2342504;54;20945;-69
2021/11/28 06:09:53;;;;;;;3.90;1.55;;;6.30;71.60;;;;;;2305409;55;21119;-71
2021/11/28 06:12:20;;;;;;;2.92;1.52;;;6.30;71.60;;;;;;2313235;55;21040;-71
2021/11/28 06:14:46;;;;;;;3.05;1.45;;;6.30;71.60;;;;;;2555395;53;21366;-71
2021/11/28 06:17:13;;;;;;;4.95;2.10;;;6.30;71.50;;;;;;2342304;54;20941;-72
2021/11/28 06:19:39;;;;;;;4.97;2.00;;;6.30;71.50;;;;;;2330195;54;21039;-71
2021/11/28 06:22:07;;;;;;;4.70;2.15;;;6.30;71.40;;;;;;2558278;53;21022;-72
2021/11/28 06:24:35;;;;;;;3.78;2.10;;;6.30;71.40;;;;;;2573538;53;20941;-70
2021/11/28 06:27:01;;;;;;;3.95;1.95;;;6.30;71.40;;;;;;2587957;53;20926;-69
2021/11/28 06:29:28;;;;;;;4.30;1.58;;;6.30;71.40;;;;;;2331659;54;20954;-69
2021/11/28 06:31:54;;;;;;;11.73;3.78;;;6.20;71.30;;;;;;2569680;53;21029;-70
2021/11/28 06:34:20;;;;;;;22.70;6.20;;;6.20;71.40;;;;;;2322094;54;21012;-69
2021/11/28 06:36:47;;;;;;;20.15;6.18;;;6.20;71.40;;;;;;2325272;54;20974;-71
2021/11/28 06:39:16;;;;;;;41.53;9.55;;;6.20;71.40;;;;;;2323901;54;21108;-71
2021/11/28 06:41:43;;;;;;;47.85;11.00;;;6.20;72.10;;;;;;2331758;54;21012;-71
2021/11/28 06:44:09;;;;;;;35.17;8.95;;;6.20;71.50;;;;;;2326425;54;21773;-70
2021/11/28 06:46:36;;;;;;;21.17;7.07;;;6.20;71.50;;;;;;2571163;53;21002;-72
2021/11/28 06:49:02;;;;;;;16.17;4.82;;;6.20;71.50;;;;;;2324850;54;20988;-70
2021/11/28 06:51:31;;;;;;;9.30;3.60;;;6.20;71.40;;;;;;2557705;53;20986;-70
2021/11/28 06:53:58;;;;;;;8.73;3.33;;;6.20;71.40;;;;;;2327923;54;21860;-72
2021/11/28 06:56:24;;;;;;;8.25;3.28;;;6.20;71.50;;;;;;2588005;53;21438;-72
2021/11/28 06:58:51;;;;;;;5.05;2.35;;;6.20;72.20;;;;;;2587862;53;21279;-70
2021/11/28 07:01:18;;;;;;;5.30;2.25;;;6.10;71.40;;;;;;2323156;54;20942;-73
2021/11/28 07:03:45;;;;;;;5.47;1.83;;;6.20;71.50;;;;;;2338576;54;21013;-74
2021/11/28 07:06:11;;;;;;;5.45;2.42;;;6.20;71.40;;;;;;2580243;53;20982;-70
2021/11/28 07:08:37;;;;;;;3.20;1.50;;;6.10;71.40;;;;;;2323452;54;21036;-71
2021/11/28 07:11:04;;;;;;;4.30;1.42;;;6.10;71.30;;;;;;2332222;54;21018;-70
2021/11/28 07:13:30;;;;;;;3.15;1.60;;;6.10;71.20;;;;;;2325928;54;20981;-70
2021/11/28 07:15:56;;;;;;;2.65;1.23;;;6.10;71.20;;;;;;2555344;53;21006;-70
2021/11/28 07:18:23;;;;;;;2.35;1.27;;;6.10;71.10;;;;;;2341706;54;20976;-70
2021/11/28 07:20:49;;;;;;;4.65;1.58;;;6.10;71.00;;;;;;2556231;53;20950;-69
2021/11/28 07:23:19;;;;;;;5.62;1.75;;;6.00;70.90;;;;;;2342550;54;21040;-70
2021/11/28 07:25:48;;;;;;;3.33;1.77;;;6.10;71.00;;;;;;2571779;53;20929;-72
2021/11/28 07:28:15;;;;;;;14.82;7.37;;;6.00;71.00;;;;;;2554410;53;20984;-71
2021/11/28 07:30:42;;;;;;;9.98;5.32;;;6.00;71.10;;;;;;2318562;54;21378;-71
2021/11/28 07:33:08;;;;;;;6.37;3.40;;;6.00;71.20;;;;;;2333635;54;20999;-70
2021/11/28 07:35:34;;;;;;;7.03;3.45;;;6.00;71.30;;;;;;2568651;53;20952;-72
2021/11/28 07:38:06;;;;;;;5.40;2.72;;;6.00;71.40;;;;;;2341991;54;20945;-70
2021/11/28 07:40:33;;;;;;;7.40;2.90;;;6.00;71.50;;;;;;2558571;53;20950;-71
2021/11/28 07:42:59;;;;;;;4.37;2.20;;;6.00;71.60;;;;;;2338552;54;20936;-71
2021/11/28 07:45:26;;;;;;;5.93;2.40;;;6.00;71.70;;;;;;2568225;53;21018;-71
2021/11/28 07:47:52;;;;;;;4.15;2.28;;;6.00;71.80;;;;;;2330132;54;21056;-72
2021/11/28 07:50:19;;;;;;;4.30;2.20;;;6.00;72.00;;;;;;2554245;53;21013;-72
2021/11/28 07:52:47;;;;;;;4.97;2.00;;;6.00;72.10;;;;;;2313389;54;21457;-71
2021/11/28 07:55:13;;;;;;;4.60;2.45;;;6.00;72.30;;;;;;2312675;55;20949;-70
2021/11/28 07:57:39;;;;;;;3.90;1.75;;;6.10;72.50;;;;;;2557263;53;20977;-73
2021/11/28 08:00:07;;;;;;;3.40;1.70;;;6.10;72.60;;;;;;2565285;53;21510;-72
2021/11/28 08:02:35;;;;;;;4.87;1.90;;;6.10;72.70;;;;;;2320303;54;21018;-69
2021/11/28 08:05:02;;;;;;;3.35;1.70;;;5.90;72.60;;;;;;2557196;53;21527;-73
2021/11/28 08:07:29;;;;;;;3.53;1.50;;;6.20;72.90;;;;;;2564968;53;20960;-69
2021/11/28 08:09:55;;;;;;;4.90;1.60;;;6.20;73.00;;;;;;2556745;53;20985;-72
2021/11/28 08:12:24;;;;;;;4.78;1.77;;;6.30;73.10;;;;;;2325961;54;20986;-72
2021/11/28 08:14:54;;;;;;;4.45;1.98;;;6.30;73.10;;;;;;2555662;53;21978;-70
2021/11/28 08:17:20;;;;;;;5.12;2.20;;;6.10;72.80;;;;;;2313912;55;20933;-70
2021/11/28 08:19:49;;;;;;;6.72;2.45;;;6.40;72.90;;;;;;2319871;54;20942;-73
2021/11/28 08:22:15;;;;;;;5.32;2.70;;;6.40;72.80;;;;;;2326538;54;21021;-70
2021/11/28 08:24:43;;;;;;;7.90;2.80;;;6.40;72.70;;;;;;2333567;54;20925;-71
2021/11/28 08:27:10;;;;;;;5.20;2.80;;;6.40;72.80;;;;;;2555040;53;20929;-73
2021/11/28 08:29:37;;;;;;;4.43;2.45;;;6.40;72.90;;;;;;2587660;53;20941;-72
2021/11/28 08:32:06;;;;;;;4.87;2.08;;;6.50;72.80;;;;;;2341483;54;21024;-73
2021/11/28 08:34:32;;;;;;;3.75;2.00;;;6.50;72.80;;;;;;2318723;54;21043;-72
2021/11/28 08:36:58;;;;;;;4.43;2.47;;;6.50;72.80;;;;;;2546619;53;21029;-72
2021/11/28 08:39:31;;;;;;;5.37;2.53;;;6.50;72.80;;;;;;2316733;54;20960;-69
2021/11/28 08:41:58;;;;;;;4.95;2.20;;;6.60;72.70;;;;;;2326718;54;21108;-70
2021/11/28 08:44:24;;;;;;;5.72;2.35;;;6.60;72.80;;;;;;2321796;54;21011;-69
2021/11/28 08:46:51;;;;;;;6.03;2.72;;;6.60;72.80;;;;;;2327700;54;21319;-69
2021/11/28 08:49:18;;;;;;;6.82;3.37;;;6.60;72.80;;;;;;2550956;53;21900;-70
2021/11/28 08:51:47;;;;;;;8.13;2.70;;;6.60;72.70;;;;;;2339343;54;20953;-72
2021/11/28 08:54:14;;;;;;;7.28;3.20;;;6.70;72.70;;;;;;2584244;53;20968;-72
2021/11/28 08:56:42;;;;;;;5.45;3.08;;;6.70;72.70;;;;;;2548817;53;20957;-70
2021/11/28 08:59:08;;;;;;;5.60;2.70;;;6.70;72.70;;;;;;2565156;53;21520;-72
2021/11/28 09:01:36;;;;;;;4.18;2.10;;;6.70;72.60;;;;;;2313922;54;20931;-70
2021/11/28 09:04:05;;;;;;;4.15;2.28;;;6.70;72.60;;;;;;2312789;54;20926;-69
2021/11/28 09:06:31;;;;;;;5.30;2.80;;;6.70;72.60;;;;;;2340926;54;21009;-69
2021/11/28 09:08:57;;;;;;;4.60;2.53;;;6.80;72.50;;;;;;2341616;54;21418;-70
2021/11/28 09:11:25;;;;;;;4.90;2.40;;;6.70;72.30;;;;;;2319501;54;21005;-70
2021/11/28 09:13:51;;;;;;;4.50;2.50;;;6.80;72.40;;;;;;2333292;54;20959;-70
2021/11/28 09:16:17;;;;;;;4.50;2.40;;;6.80;72.20;;;;;;2319049;54;21146;-72
2021/11/28 09:18:55;;;;;;;4.43;2.30;;;6.80;72.30;;;;;;2324963;54;20945;-70
2021/11/28 09:21:21;;;;;;;5.43;2.45;;;6.80;72.30;;;;;;2340366;54;20949;-69
2021/11/28 09:26:33;;;;;;;5.47;2.80;;;6.80;73.40;;;;;;2324585;54;21074;-71
2021/11/28 09:29:00;;;;;;;5.28;2.80;;;6.80;72.90;;;;;;2300674;54;21478;-70
2021/11/28 09:31:30;;;;;;;5.40;2.70;;;6.90;73.20;;;;;;2583132;53;20961;-73
2021/11/28 09:33:56;;;;;;;3.85;2.30;;;6.90;73.40;;;;;;2318237;54;20989;-70
2021/11/28 09:36:24;;;;;;;4.70;2.60;;;7.00;73.90;;;;;;2335118;54;20978;-70
2021/11/28 09:38:50;;;;;;;5.62;2.62;;;7.00;74.50;;;;;;2313551;54;20925;-73
2021/11/28 09:41:17;;;;;;;6.20;3.00;;;7.10;74.90;;;;;;2338017;54;21769;-70
2021/11/28 09:43:49;;;;;;;4.18;2.17;;;7.20;75.10;;;;;;2533098;53;20953;-70
2021/11/28 09:46:18;;;;;;;5.12;2.58;;;7.30;75.30;;;;;;2303237;55;20953;-73
2021/11/28 09:48:44;;;;;;;5.03;2.33;;;7.40;75.40;;;;;;2541526;53;20948;-71
2021/11/28 09:51:10;;;;;;;5.65;2.75;;;7.50;75.50;;;;;;2322782;54;20979;-72
2021/11/28 09:53:37;;;;;;;5.12;2.92;;;7.60;75.20;;;;;;2521229;54;20964;-72
2021/11/28 09:56:03;;;;;;;4.50;2.58;;;7.70;75.10;;;;;;2327922;54;20964;-74
2021/11/28 09:58:30;;;;;;;5.35;2.70;;;7.80;75.00;;;;;;2316409;55;21095;-72
2021/11/28 10:01:00;;;;;;;5.05;2.45;;;7.90;74.80;;;;;;2315391;54;20998;-70
2021/11/28 10:03:26;;;;;;;5.10;2.25;;;7.90;75.40;;;;;;2555237;53;21444;-74
2021/11/28 10:05:53;;;;;;;7.57;2.75;;;8.00;74.60;;;;;;2314457;54;20973;-71
2021/11/28 10:08:20;;;;;;;5.18;2.47;;;8.00;74.40;;;;;;2298817;54;20942;-70
2021/11/28 10:11:22;;;;;;;4.87;2.65;;;8.10;74.50;;;;;;2312134;54;20960;-70
2021/11/28 10:13:49;;;;;;;5.80;2.53;;;8.20;74.20;;;;;;2293106;54;21003;-70
2021/11/28 10:16:16;;;;;;;4.78;2.83;;;8.30;75.10;;;;;;2313777;54;20928;-70
2021/11/28 10:18:43;;;;;;;6.90;2.47;;;8.30;75.20;;;;;;2297942;54;21012;-73
2021/11/28 10:21:09;;;;;;;4.00;2.20;;;8.50;75.20;;;;;;2310837;55;21039;-70
2021/11/28 10:24:03;;;;;;;4.50;2.00;;;8.50;74.70;;;;;;2527004;54;21004;-71
2021/11/28 10:26:29;;;;;;;4.07;2.30;;;8.60;74.30;;;;;;2569365;53;20925;-72
2021/11/28 10:29:55;;;;;;;4.25;2.62;;;8.60;73.80;;;;;;2341277;54;20993;-70
2021/11/28 10:32:23;;;;;;;3.40;1.77;;;8.70;72.00;;;;;;2554283;53;20937;-71
2021/11/28 10:34:49;;;;;;;5.28;2.50;;;8.70;73.10;;;;;;2341978;54;21391;-72
2021/11/28 10:37:19;;;;;;;5.97;2.90;;;8.70;73.00;;;;;;2555048;53;21325;-73
2021/11/28 10:39:55;;;;;;;4.07;2.15;;;8.70;72.50;;;;;;2330626;54;21049;-73
2021/11/28 10:42:31;;;;;;;3.90;2.10;;;8.70;72.10;;;;;;2319753;54;20952;-71
2021/11/28 10:45:07;;;;;;;3.67;2.00;;;8.60;71.90;;;;;;2343989;54;20985;-71
2021/11/28 10:47:56;;;;;;;4.90;2.28;;;8.70;72.00;;;;;;2340464;54;20989;-72
2021/11/28 10:50:30;;;;;;;4.10;2.35;;;8.60;71.50;;;;;;2299196;55;21008;-71
2021/11/28 10:53:08;;;;;;;4.68;2.00;;;8.60;71.70;;;;;;2345256;54;20965;-73
2021/11/28 10:55:38;;;;;;;3.55;2.10;;;8.60;71.50;;;;;;2562004;53;21010;-73
2021/11/28 10:58:09;;;;;;;4.00;2.20;;;8.60;71.90;;;;;;2582002;53;20953;-70
2021/11/28 11:01:58;;;;;;;4.68;2.05;;;8.60;71.90;;;;;;2340790;54;20952;-71
2021/11/28 11:04:24;;;;;;;4.18;2.22;;;8.60;72.20;;;;;;2305595;55;21049;-71
2021/11/28 11:07:11;;;;;;;4.18;2.40;;;8.60;71.40;;;;;;2333946;54;20949;-71
2021/11/28 11:09:45;;;;;;;4.18;2.50;;;8.60;70.90;;;;;;2321356;54;20965;-73
2021/11/28 11:12:28;;;;;;;3.55;2.05;;;8.50;70.80;;;;;;2586464;53;20909;-70
2021/11/28 11:14:56;;;;;;;3.92;2.00;;;8.50;71.00;;;;;;2565469;53;20942;-73
2021/11/28 11:17:27;;;;;;;3.55;1.95;;;8.50;71.80;;;;;;2333836;54;20953;-71
2021/11/28 11:19:53;;;;;;;3.80;2.28;;;8.50;72.20;;;;;;2320884;54;20991;-70
2021/11/28 11:22:22;;;;;;;3.83;2.00;;;8.50;72.40;;;;;;2332972;54;20997;-72
2021/11/28 11:24:58;;;;;;;3.87;2.10;;;8.50;72.30;;;;;;2318629;54;20971;-71
2021/11/28 11:27:30;;;;;;;4.95;2.60;;;8.60;72.20;;;;;;2548758;53;21052;-70
2021/11/28 11:30:12;;;;;;;4.15;2.47;;;8.60;71.70;;;;;;2323609;54;21002;-73
2021/11/28 11:32:40;;;;;;;3.85;2.20;;;8.50;71.00;;;;;;2332946;54;21008;-73
2021/11/28 11:35:09;;;;;;;3.85;2.40;;;8.50;71.20;;;;;;2315155;54;21212;-74
2021/11/28 11:37:36;;;;;;;4.25;2.50;;;8.60;71.40;;;;;;2335766;54;21019;-71
2021/11/28 11:40:09;;;;;;;4.15;2.65;;;8.50;71.10;;;;;;2322765;54;21041;-71
2021/11/28 11:42:35;;;;;;;;;;;8.50;70.80;;;;;;2346995;54;20961;-71
2021/11/28 11:45:01;;;;;;;3.80;2.10;;;8.50;69.80;;;;;;2394173;54;2495699;-70
2021/11/28 11:47:27;;;;;;;4.43;2.40;;;8.50;71.30;;;;;;2308425;55;21019;-74
2021/11/28 11:49:53;;;;;;;4.18;2.35;;;8.50;71.30;;;;;;2339659;54;20956;-71
2021/11/28 11:52:20;;;;;;;4.53;2.50;;;8.50;71.90;;;;;;2340847;54;20953;-71
2021/11/28 11:54:58;;;;;;;4.65;2.60;;;8.50;71.30;;;;;;2325764;54;21434;-70
2021/11/28 11:57:55;;;;;;;5.15;2.50;;;8.40;71.20;;;;;;2322005;54;21748;-70
2021/11/28 12:01:01;;;;;;;6.57;3.37;;;8.40;71.10;;;;;;2318822;54;21742;-70
2021/11/28 12:03:28;;;;;;;4.87;2.78;;;8.40;71.10;;;;;;2339097;54;20980;-73
2021/11/28 12:05:55;;;;;;;5.70;2.85;;;8.40;71.10;;;;;;2319676;54;20966;-73
2021/11/28 12:08:29;;;;;;;3.87;2.40;;;8.40;71.20;;;;;;2317624;54;20963;-70
2021/11/28 12:11:03;;;;;;;5.18;2.87;;;8.40;71.20;;;;;;2342489;54;21024;-73
2021/11/28 12:14:15;;;;;;;5.00;2.92;;;8.40;71.30;;;;;;2318813;54;21040;-73
2021/11/28 12:16:44;;;;;;;5.22;2.62;;;8.30;70.20;;;;;;2325300;54;21490;-71
2021/11/28 12:19:34;;;;;;;8.80;3.17;;;8.30;71.00;;;;;;2546132;53;21370;-70
2021/11/28 12:22:03;;;;;;;5.07;2.78;;;8.30;71.00;;;;;;2335188;54;21064;-73
2021/11/28 12:24:30;;;;;;;5.72;2.75;;;8.30;71.10;;;;;;2324468;54;21020;-73
2021/11/28 12:26:59;;;;;;;4.47;2.55;;;8.30;71.20;;;;;;2553036;53;20938;-71
2021/11/28 12:29:41;;;;;;;4.20;2.53;;;8.30;71.20;;;;;;2332581;54;20969;-73
2021/11/28 12:32:17;;;;;;;4.15;2.55;;;8.30;71.00;;;;;;2322838;54;21091;-70
2021/11/28 12:34:49;;;;;;;4.18;2.47;;;8.30;71.30;;;;;;2520884;54;21047;-70
2021/11/28 12:37:50;;;;;;;3.85;2.05;;;8.30;71.50;;;;;;2294488;55;21087;-74
2021/11/28 12:40:22;;;;;;;4.00;2.20;;;8.20;71.50;;;;;;2321320;54;21062;-70
2021/11/28 12:42:48;;;;;;;4.03;2.20;;;8.30;71.60;;;;;;2299911;55;20979;-70
2021/11/28 12:45:30;;;;;;;3.83;2.30;;;8.30;71.80;;;;;;2564083;53;21044;-73
2021/11/28 12:48:22;;;;;;;3.93;2.30;;;8.20;71.30;;;;;;2318275;54;20948;-73
2021/11/28 12:50:54;;;;;;;3.60;2.10;;;8.30;71.30;;;;;;2312190;53;21043;-71
2021/11/28 12:53:38;;;;;;;3.90;2.20;;;8.30;71.60;;;;;;2316257;54;21026;-70
2021/11/28 12:56:37;;;;;;;4.10;2.60;;;8.30;71.40;;;;;;2303485;54;21118;-71
2021/11/28 12:59:24;;;;;;;3.42;2.05;;;8.30;70.40;;;;;;2321538;54;21622;-70
2021/11/28 13:02:00;;;;;;;3.78;2.45;;;8.30;70.80;;;;;;2318268;54;20962;-70
2021/11/28 13:04:43;;;;;;;4.00;2.35;;;8.20;70.90;;;;;;2317943;55;20991;-70
2021/11/28 13:07:29;;;;;;;4.65;2.10;;;8.20;70.70;;;;;;2328203;54;21043;-70
2021/11/28 13:09:57;;;;;;;3.30;2.00;;;8.20;70.70;;;;;;2312564;55;20951;-72
2021/11/28 13:12:27;;;;;;;3.97;2.10;;;8.20;71.30;;;;;;2335643;54;20990;-72
2021/11/28 13:14:54;;;;;;;3.33;1.75;;;8.10;71.10;;;;;;2319989;54;20935;-72
2021/11/28 13:17:22;;;;;;;3.05;1.65;;;8.10;71.10;;;;;;2337180;55;20875;-71